Time;durP1;ratioP1;P1;durP2;ratioP2;P2;SDS_P1;SDS_P2;PMS_P1;PMS_P2;Temp;Humidity;BMP_temperature;BMP_pressure;BME280_temperature;BME280_humidity;BME280_pressure;Samples;Min_cycle;Max_cycle;Signal;HPM_P1;HPM_P2
2022/05/21 00:02:12;;;;;;;2.83;2.40;;;;;;;17.04;62.08;99882.63;5112176;28;20344;-70
2022/05/21 00:04:41;;;;;;;4.40;2.50;;;;;;;16.97;62.78;99881.91;5112003;28;20672;-70
2022/05/21 00:07:10;;;;;;;2.33;2.13;;;;;;;16.93;63.33;99872.66;5112527;28;20194;-70
2022/05/21 00:09:37;;;;;;;4.50;2.60;;;;;;;16.92;62.70;99867.53;5111937;28;20649;-70
2022/05/21 00:12:05;;;;;;;3.63;2.10;;;;;;;16.87;62.80;99872.75;5111915;28;20191;-70
2022/05/21 00:14:34;;;;;;;3.47;2.43;;;;;;;16.85;63.14;99877.50;5111887;28;20199;-70
2022/05/21 00:17:01;;;;;;;2.43;2.30;;;;;;;16.80;63.67;99869.34;5112928;28;20207;-70
2022/05/21 00:19:27;;;;;;;4.20;2.80;;;;;;;16.78;63.82;99868.75;5111886;28;20199;-70
2022/05/21 00:21:54;;;;;;;4.73;2.20;;;;;;;16.78;63.74;99871.44;5111760;28;20774;-70
2022/05/21 00:24:22;;;;;;;2.50;2.23;;;;;;;16.76;63.80;99868.97;5111801;28;20669;-70
2022/05/21 00:26:49;;;;;;;5.43;2.20;;;;;;;16.70;64.89;99864.50;5113334;28;20199;-70
2022/05/21 00:29:18;;;;;;;5.13;2.37;;;;;;;16.66;64.79;99854.47;5115508;28;20213;-70
2022/05/21 00:31:45;;;;;;;2.80;2.60;;;;;;;16.66;65.35;99857.94;5115760;28;20195;-70
2022/05/21 00:34:12;;;;;;;3.93;2.57;;;;;;;16.68;65.35;99860.41;5115387;28;20194;-70
2022/05/21 00:36:38;;;;;;;4.50;2.50;;;;;;;16.55;66.04;99856.06;5115356;28;20214;-70
2022/05/21 00:39:05;;;;;;;5.53;3.00;;;;;;;16.50;64.83;99868.50;5116483;28;20186;-70
2022/05/21 00:41:34;;;;;;;2.93;2.63;;;;;;;16.46;65.12;99870.78;5116223;28;20535;-70
2022/05/21 00:44:02;;;;;;;2.93;2.40;;;;;;;16.45;65.11;99865.66;5115847;28;20197;-70
2022/05/21 00:46:30;;;;;;;4.47;2.27;;;;;;;16.43;64.55;99870.41;5115537;28;20285;-70
2022/05/21 00:49:02;;;;;;;5.33;2.20;;;;;;;16.44;64.70;99872.06;5115573;28;20227;-70
2022/05/21 00:51:33;;;;;;;3.07;2.13;;;;;;;16.44;64.79;99869.38;5115184;28;20182;-70
2022/05/21 00:54:03;;;;;;;4.33;2.40;;;;;;;16.45;64.11;99866.47;5116205;27;20178;-70
2022/05/21 00:56:35;;;;;;;2.40;2.20;;;;;;;16.44;64.27;99864.84;5115009;28;20191;-70
2022/05/21 01:01:57;;;;;;;2.70;1.77;;;;;;;16.47;63.92;99871.63;5104336;28;20233;-70
2022/05/21 01:04:25;;;;;;;3.20;1.93;;;;;;;16.48;63.42;99870.56;5115166;28;20183;-70
2022/05/21 01:06:53;;;;;;;4.30;2.00;;;;;;;16.45;63.57;99863.78;5114811;28;20366;-70
2022/05/21 01:09:20;;;;;;;3.83;1.90;;;;;;;16.42;63.33;99868.78;5115356;28;20251;-70
2022/05/21 01:11:48;;;;;;;4.40;2.30;;;;;;;16.42;63.52;99866.13;5114689;28;20197;-70
2022/05/21 01:14:20;;;;;;;2.30;2.10;;;;;;;16.42;63.09;99850.03;5114675;28;20218;-70
2022/05/21 01:16:47;;;;;;;2.00;1.80;;;;;;;16.42;62.96;99850.03;5115832;28;20179;-70
2022/05/21 01:19:14;;;;;;;2.63;2.00;;;;;;;16.40;62.57;99857.44;5114620;28;20239;-70
2022/05/21 01:21:41;;;;;;;2.20;2.00;;;;;;;16.37;63.00;99852.53;5114777;28;20255;-70
2022/05/21 01:24:11;;;;;;;2.00;1.77;;;;;;;16.37;62.13;99847.16;5114470;28;20615;-70
2022/05/21 01:26:39;;;;;;;2.80;1.90;;;;;;;16.37;62.39;99849.84;5114410;28;20191;-70
2022/05/21 01:29:12;;;;;;;3.73;2.40;;;;;;;16.36;62.03;99842.81;5114730;28;20273;-70
2022/05/21 01:31:40;;;;;;;2.60;1.80;;;;;;;16.36;61.97;99840.16;5114689;28;20222;-69
2022/05/21 01:34:07;;;;;;;7.50;1.90;;;;;;;16.30;61.61;99835.69;5114293;28;20565;-70
2022/05/21 01:36:34;;;;;;;2.20;2.00;;;;;;;16.27;61.94;99826.25;5114264;28;20195;-70
2022/05/21 01:39:01;;;;;;;12.53;3.53;;;;;;;16.26;62.67;99827.28;5113137;28;20728;-69
2022/05/21 01:41:29;;;;;;;12.27;3.27;;;;;;;16.20;63.32;99830.06;5114442;28;20753;-70
2022/05/21 01:46:40;;;;;;;3.70;2.07;;;;;;;16.16;63.60;99835.03;5114475;28;20263;-70
2022/05/21 01:49:06;;;;;;;5.97;2.47;;;;;;;16.10;64.29;99827.06;5114148;28;20230;-69
2022/05/21 01:51:33;;;;;;;6.20;2.23;;;;;;;16.10;64.30;99835.09;5114803;28;20276;-70
2022/05/21 01:54:00;;;;;;;3.30;2.10;;;;;;;16.12;64.95;99827.66;5114121;28;20195;-69
2022/05/21 01:56:26;;;;;;;2.27;2.07;;;;;;;16.06;64.95;99826.69;5114688;28;20315;-69
2022/05/21 01:58:55;;;;;;;3.87;2.60;;;;;;;16.00;65.06;99821.41;5115141;28;20190;-70
2022/05/21 02:01:22;;;;;;;18.27;4.60;;;;;;;15.98;64.74;99819.75;5113761;28;20626;-69
2022/05/21 02:03:49;;;;;;;13.27;4.00;;;;;;;15.99;65.06;99823.25;5113924;28;20218;-70
2022/05/21 02:06:15;;;;;;;11.17;3.30;;;;;;;16.01;65.21;99818.53;5113937;28;20190;-70
2022/05/21 02:08:42;;;;;;;8.50;2.73;;;;;;;16.02;65.26;99819.31;5113588;28;20240;-70
2022/05/21 02:11:09;;;;;;;4.77;2.97;;;;;;;16.01;65.51;99815.00;5113872;27;20276;-69
2022/05/21 02:13:36;;;;;;;6.43;3.50;;;;;;;15.96;66.19;99817.53;5113835;28;20195;-70
2022/05/21 02:16:05;;;;;;;2.97;2.57;;;;;;;15.93;66.69;99815.28;5113690;28;20672;-70
2022/05/21 02:18:32;;;;;;;7.60;2.97;;;;;;;15.93;66.83;99812.63;5113448;28;20191;-70
2022/05/21 02:20:59;;;;;;;3.10;2.80;;;;;;;15.84;67.16;99818.28;5113364;28;20244;-70
2022/05/21 02:23:26;;;;;;;7.37;3.13;;;;;;;15.81;66.91;99821.38;5113543;28;20267;-70
2022/05/21 02:25:53;;;;;;;6.53;2.80;;;;;;;15.60;66.80;99808.41;5113572;28;20214;-70
2022/05/21 02:28:19;;;;;;;5.37;3.20;;;;;;;15.45;68.18;99810.59;5113197;28;20244;-70
2022/05/21 02:30:46;;;;;;;5.27;2.63;;;;;;;15.47;68.11;99813.88;5113194;28;20220;-70
2022/05/21 02:33:14;;;;;;;6.50;3.17;;;;;;;15.36;67.97;99814.59;5113448;28;20637;-70
2022/05/21 02:35:41;;;;;;;4.10;2.90;;;;;;;15.19;68.18;99810.78;5113109;28;20680;-70
2022/05/21 02:40:52;;;;;;;7.27;3.03;;;;;;;15.21;67.31;99814.09;5113718;28;20233;-70
2022/05/21 02:43:19;;;;;;;4.50;2.23;;;;;;;15.25;66.99;99809.94;5112862;28;20218;-70
2022/05/21 02:45:46;;;;;;;4.00;2.30;;;;;;;15.29;66.60;99811.13;5113230;28;20194;-70
2022/05/21 02:48:14;;;;;;;8.00;2.70;;;;;;;15.26;65.79;99808.91;5112639;28;20720;-70
2022/05/21 02:50:41;;;;;;;3.97;2.60;;;;;;;15.19;65.82;99816.16;5113516;28;20212;-70
2022/05/21 02:53:14;;;;;;;2.80;2.60;;;;;;;14.95;67.67;99814.25;5112785;28;20326;-70
2022/05/21 02:55:41;;;;;;;3.17;2.40;;;;;;;15.00;66.84;99814.41;5112828;28;20218;-70
2022/05/21 02:58:08;;;;;;;2.63;2.00;;;;;;;15.04;67.25;99815.63;5112704;28;20191;-70
2022/05/21 03:00:34;;;;;;;4.93;2.57;;;;;;;15.09;67.18;99815.81;5112981;28;20278;-70
2022/05/21 03:03:01;;;;;;;5.27;2.80;;;;;;;15.13;67.19;99814.34;5113136;28;20254;-71
2022/05/21 03:05:31;;;;;;;3.63;3.03;;;;;;;15.19;66.59;99815.31;5112932;28;20255;-71
2022/05/21 03:07:58;;;;;;;13.17;2.90;;;;;;;15.20;66.46;99812.41;5113437;28;20237;-71
2022/05/21 03:10:28;;;;;;;9.23;2.13;;;;;;;15.31;66.55;99809.06;5112887;28;20243;-71
2022/05/21 03:12:56;;;;;;;5.80;2.07;;;;;;;15.40;66.32;99810.44;5112516;28;20741;-71
2022/05/21 03:15:27;;;;;;;6.67;2.53;;;;;;;15.44;66.42;99808.16;5112441;28;20577;-71
2022/05/21 03:17:54;;;;;;;11.53;2.17;;;;;;;15.46;65.99;99806.91;5112515;28;20183;-70
2022/05/21 03:20:22;;;;;;;7.90;2.70;;;;;;;15.53;66.00;99818.34;5112729;28;20194;-71
2022/05/21 03:22:50;;;;;;;7.40;2.70;;;;;;;15.55;66.66;99816.28;5112645;28;20218;-70
2022/05/21 03:25:17;;;;;;;8.13;2.60;;;;;;;15.59;66.22;99811.31;5112619;28;20252;-71
2022/05/21 03:27:45;;;;;;;3.87;2.93;;;;;;;15.68;65.52;99821.50;5112297;28;20190;-71
2022/05/21 03:30:14;;;;;;;3.67;2.57;;;;;;;15.71;65.04;99825.59;5112303;28;20726;-71
2022/05/21 03:32:41;;;;;;;2.50;2.23;;;;;;;15.71;65.05;99833.66;5112291;28;20194;-71
2022/05/21 03:35:09;;;;;;;7.03;3.10;;;;;;;15.66;65.28;99828.97;5112287;28;20680;-70
2022/05/21 03:37:37;;;;;;;5.80;3.07;;;;;;;15.62;65.95;99826.94;5112259;28;20248;-70
2022/05/21 03:40:08;;;;;;;11.50;3.53;;;;;;;15.75;65.32;99826.81;5112778;28;20310;-71
2022/05/21 03:42:35;;;;;;;17.07;3.63;;;;;;;15.90;65.21;99835.31;5112758;28;20240;-70
2022/05/21 03:45:01;;;;;;;9.40;3.03;;;;;;;16.11;64.37;99820.66;5112238;28;20652;-69
2022/05/21 03:47:28;;;;;;;3.27;3.03;;;;;;;16.36;63.01;99819.53;5112460;28;20194;-70
2022/05/21 03:49:55;;;;;;;3.80;2.40;;;;;;;16.67;61.47;99831.94;5112736;28;20226;-69
2022/05/21 03:52:21;;;;;;;16.93;2.83;;;;;;;17.06;60.92;99834.09;5112095;28;20254;-69
2022/05/21 03:54:48;;;;;;;6.97;2.43;;;;;;;17.22;59.54;99810.06;5112085;28;20197;-69
2022/05/21 03:57:17;;;;;;;6.13;3.23;;;;;;;17.64;58.14;99841.22;5112360;28;20195;-69
2022/05/21 03:59:44;;;;;;;11.23;3.70;;;;;;;18.09;57.34;99842.25;5112361;28;20253;-69
2022/05/21 04:02:11;;;;;;;7.37;3.00;;;;;;;19.14;52.36;99848.94;5114104;28;20251;-69
2022/05/21 04:04:39;;;;;;;5.50;2.20;;;;;;;20.17;49.16;99847.41;5116806;28;20218;-69
2022/05/21 04:07:06;;;;;;;9.73;2.40;;;;;;;21.14;45.04;99845.63;5115870;28;20190;-69
2022/05/21 04:09:33;;;;;;;2.03;1.83;;;;;;;22.08;42.04;99847.44;5116238;28;20252;-70
2022/05/21 04:12:00;;;;;;;6.03;2.50;;;;;;;22.74;39.14;99850.22;5115827;28;20194;-70
2022/05/21 04:14:29;;;;;;;4.00;2.17;;;;;;;23.54;37.41;99850.41;5115807;28;20560;-69
2022/05/21 04:16:56;;;;;;;9.13;2.40;;;;;;;24.16;35.67;99850.88;5116026;28;20216;-69
2022/05/21 04:19:24;;;;;;;1.93;1.83;;;;;;;24.82;34.84;99855.00;5116876;28;20284;-69
2022/05/21 04:21:51;;;;;;;5.63;1.97;;;;;;;25.00;34.42;99846.19;5116030;28;20254;-70
2022/05/21 04:24:18;;;;;;;4.00;2.07;;;;;;;25.26;33.70;99846.84;5115813;28;20220;-69
2022/05/21 04:26:46;;;;;;;5.50;2.73;;;;;;;25.52;33.46;99837.41;5116425;28;20193;-69
2022/05/21 04:29:14;;;;;;;5.40;2.10;;;;;;;25.68;33.29;99846.28;5115549;28;20197;-69
2022/05/21 04:31:42;;;;;;;2.90;2.23;;;;;;;26.41;31.99;99851.25;5116008;28;20245;-69
2022/05/21 04:34:09;;;;;;;2.47;2.13;;;;;;;26.73;31.34;99847.88;5115955;28;20195;-70
2022/05/21 04:36:36;;;;;;;3.00;2.30;;;;;;;27.09;31.38;99858.03;5115394;28;20195;-69
2022/05/21 04:39:03;;;;;;;5.33;1.97;;;;;;;27.05;31.00;99847.97;5116479;28;20232;-69
2022/05/21 04:41:30;;;;;;;5.13;1.97;;;;;;;27.47;30.69;99848.72;5115576;27;20294;-70
2022/05/21 04:43:58;;;;;;;2.23;2.00;;;;;;;27.83;30.14;99846.22;5115091;28;20219;-70
2022/05/21 04:46:25;;;;;;;5.20;1.87;;;;;;;28.08;29.86;99853.94;5115205;28;20186;-70
2022/05/21 04:48:53;;;;;;;2.97;1.93;;;;;;;28.37;29.88;99846.28;5115731;28;20318;-70
2022/05/21 04:51:20;;;;;;;3.63;1.60;;;;;;;28.86;28.69;99846.38;5115435;28;20190;-69
2022/05/21 04:53:47;;;;;;;3.67;1.70;;;;;;;28.64;29.11;99847.13;5115037;28;20200;-70
2022/05/21 04:56:14;;;;;;;3.70;2.00;;;;;;;28.90;28.66;99844.63;5115288;28;20741;-70
2022/05/21 04:58:41;;;;;;;3.30;2.00;;;;;;;29.07;28.37;99845.63;5115317;28;20257;-70
2022/05/21 05:01:08;;;;;;;2.60;2.40;;;;;;;29.40;27.79;99843.50;5115318;28;20228;-70
2022/05/21 05:03:35;;;;;;;2.90;2.10;;;;;;;29.44;27.62;99854.66;5115041;28;20214;-70
2022/05/21 05:06:03;;;;;;;3.93;2.20;;;;;;;29.79;27.13;99849.13;5114736;28;20194;-70
2022/05/21 05:08:30;;;;;;;2.47;2.10;;;;;;;29.75;27.59;99847.31;5115068;28;20187;-69
2022/05/21 05:10:57;;;;;;;2.43;2.23;;;;;;;29.42;27.90;99846.75;5114995;28;20190;-69
2022/05/21 05:13:24;;;;;;;6.60;2.50;;;;;;;29.85;27.37;99847.88;5114581;28;20198;-69
2022/05/21 05:15:50;;;;;;;20.90;4.20;;;;;;;30.05;26.66;99855.53;5115495;28;20251;-70
2022/05/21 05:18:21;;;;;;;13.03;2.70;;;;;;;30.20;26.86;99852.44;5114590;28;20251;-70
2022/05/21 05:20:49;;;;;;;40.03;5.67;;;;;;;30.39;26.97;99843.94;5115083;28;20183;-70
2022/05/21 05:23:17;;;;;;;7.57;2.37;;;;;;;30.25;26.82;99844.06;5114286;28;20650;-70
2022/05/21 05:25:44;;;;;;;4.93;2.20;;;;;;;30.38;26.82;99843.13;5114438;28;20224;-70
2022/05/21 05:28:16;;;;;;;3.33;2.27;;;;;;;30.36;27.06;99839.91;5114429;28;20704;-70
2022/05/21 05:30:42;;;;;;;5.23;2.20;;;;;;;30.61;26.44;99839.19;5114337;28;20660;-70
2022/05/21 05:33:09;;;;;;;7.57;2.30;;;;;;;30.61;27.16;99850.16;5114783;28;20195;-70
2022/05/21 05:35:36;;;;;;;7.80;2.90;;;;;;;30.61;27.15;99858.38;5114601;27;20187;-70
2022/05/21 05:38:06;;;;;;;32.13;4.27;;;;;;;30.64;27.07;99848.69;5114168;27;20244;-70
2022/05/21 05:40:35;;;;;;;4.93;2.03;;;;;;;30.85;25.74;99853.31;5114423;28;20613;-70
2022/05/21 05:43:01;;;;;;;5.03;1.90;;;;;;;31.05;25.13;99849.94;5113988;28;20195;-70
2022/05/21 05:45:28;;;;;;;2.43;1.93;;;;;;;30.70;25.87;99851.00;5114054;28;20201;-70
2022/05/21 05:47:55;;;;;;;6.50;1.97;;;;;;;30.34;26.39;99841.34;5114495;28;20191;-70
2022/05/21 05:50:22;;;;;;;4.60;1.80;;;;;;;30.34;26.34;99839.41;5114298;28;20252;-70
2022/05/21 05:52:48;;;;;;;10.47;3.37;;;;;;;30.55;26.29;99851.44;5113930;28;20672;-70
2022/05/21 05:55:15;;;;;;;5.87;2.37;;;;;;;30.57;25.55;99849.16;5114194;28;20262;-70
2022/05/21 05:57:43;;;;;;;2.50;2.17;;;;;;;30.92;25.07;99850.91;5114124;28;20243;-70
2022/05/21 06:00:10;;;;;;;7.93;2.50;;;;;;;30.91;25.15;99852.00;5113802;28;20248;-70
2022/05/21 06:05:23;;;;;;;8.90;1.90;;;;;;;31.03;24.25;99848.66;5127661;27;20216;-70
2022/05/21 06:07:52;;;;;;;7.33;1.77;;;;;;;30.84;24.50;99834.41;5117673;27;20262;-71
2022/05/21 06:10:21;;;;;;;4.47;1.60;;;;;;;30.72;24.36;99842.47;5114878;27;20627;-71
2022/05/21 06:12:49;;;;;;;4.43;2.13;;;;;;;30.58;24.80;99834.31;5133664;27;20219;-71
2022/05/21 06:15:17;;;;;;;5.23;2.00;;;;;;;30.45;24.92;99824.28;5134343;27;20582;-71
2022/05/21 06:17:45;;;;;;;4.77;1.80;;;;;;;30.49;25.11;99828.00;5134713;27;20262;-71
2022/05/21 06:20:14;;;;;;;2.37;1.50;;;;;;;30.53;24.99;99826.25;5120987;27;20616;-71
2022/05/21 06:22:41;;;;;;;3.77;1.70;;;;;;;30.60;25.24;99823.84;5113221;28;20557;-71
2022/05/21 06:25:09;;;;;;;8.37;1.73;;;;;;;30.50;24.87;99823.34;5112482;28;20264;-71
2022/05/21 06:27:36;;;;;;;3.93;1.87;;;;;;;30.53;24.90;99822.72;5112123;28;20195;-71
2022/05/21 06:30:05;;;;;;;21.33;2.50;;;;;;;30.72;25.03;99821.34;5113903;28;20240;-71
2022/05/21 06:32:32;;;;;;;3.80;2.40;;;;;;;30.49;25.29;99811.56;5112935;28;20220;-71
2022/05/21 06:34:59;;;;;;;18.80;2.43;;;;;;;30.53;25.29;99814.50;5113012;28;20664;-71
2022/05/21 06:37:25;;;;;;;9.57;2.07;;;;;;;30.66;25.73;99805.31;5127563;27;20262;-72
2022/05/21 06:39:52;;;;;;;9.47;2.10;;;;;;;30.80;25.12;99808.75;5133787;27;20193;-71
2022/05/21 06:42:19;;;;;;;5.17;1.87;;;;;;;30.63;25.59;99801.28;5133356;27;20659;-72
2022/05/21 06:44:45;;;;;;;2.43;1.70;;;;;;;30.72;25.76;99796.66;5134454;27;20214;-71
2022/05/21 06:47:13;;;;;;;7.23;2.20;;;;;;;30.79;25.82;99794.22;5133651;27;20230;-71
2022/05/21 06:49:40;;;;;;;3.47;2.00;;;;;;;30.89;25.84;99788.41;5133928;27;20221;-71
2022/05/21 06:52:07;;;;;;;7.10;1.67;;;;;;;30.68;25.73;99787.41;5134447;27;20190;-71
2022/05/21 06:54:34;;;;;;;3.67;1.77;;;;;;;30.75;26.18;99795.19;5133153;27;20681;-71
2022/05/21 06:57:01;;;;;;;5.83;1.90;;;;;;;30.99;25.84;99788.09;5133170;27;20227;-71
2022/05/21 06:59:28;;;;;;;5.03;2.00;;;;;;;31.19;25.60;99795.69;5133247;27;20243;-71
2022/05/21 07:01:55;;;;;;;3.37;1.93;;;;;;;31.07;25.30;99784.53;5133482;27;20280;-71
2022/05/21 07:09:47;;;;;;;2.73;1.47;;;;;;;31.49;24.88;99775.50;5125415;27;20233;-71
2022/05/21 07:12:14;;;;;;;5.47;1.73;;;;;;;31.15;24.97;99770.00;5113199;27;20262;-72
2022/05/21 07:14:41;;;;;;;3.80;1.60;;;;;;;31.30;24.98;99750.31;5112377;28;20221;-71
2022/05/21 07:17:08;;;;;;;7.07;1.70;;;;;;;31.42;24.87;99744.97;5112579;28;20694;-71
2022/05/21 07:19:37;;;;;;;4.37;1.63;;;;;;;31.49;25.25;99737.03;5112579;28;20199;-71
2022/05/21 07:22:06;;;;;;;4.43;1.73;;;;;;;31.51;24.78;99736.69;5112237;28;20194;-72
2022/05/21 07:24:34;;;;;;;7.13;1.90;;;;;;;31.65;24.62;99732.59;5112497;28;20304;-72
2022/05/21 07:27:02;;;;;;;3.30;1.67;;;;;;;31.75;24.48;99732.25;5112616;28;20237;-72
2022/05/21 07:29:28;;;;;;;2.80;1.60;;;;;;;31.85;24.08;99718.16;5112527;28;20255;-72
2022/05/21 07:31:55;;;;;;;6.13;1.50;;;;;;;31.90;24.04;99714.44;5112494;28;20239;-72
2022/05/21 07:34:22;;;;;;;2.10;1.60;;;;;;;31.73;24.35;99717.25;5112132;28;20194;-72
2022/05/21 07:36:50;;;;;;;6.60;1.73;;;;;;;31.59;24.72;99702.91;5114033;28;20194;-72
2022/05/21 07:39:17;;;;;;;3.63;1.53;;;;;;;31.84;24.31;99702.81;5116727;27;20187;-72
2022/05/21 07:41:44;;;;;;;3.73;1.50;;;;;;;32.34;23.21;99692.69;5116679;28;20236;-72
2022/05/21 07:44:10;;;;;;;3.43;1.77;;;;;;;32.70;22.86;99698.41;5116372;28;20218;-72
2022/05/21 07:46:37;;;;;;;5.97;1.80;;;;;;;32.60;22.90;99693.31;5116366;28;20585;-72
2022/05/21 07:49:04;;;;;;;2.63;1.80;;;;;;;32.26;23.24;99681.75;5116434;28;20222;-73
2022/05/21 07:51:31;;;;;;;5.67;2.00;;;;;;;32.16;23.58;99671.94;5116299;28;20212;-72
2022/05/21 07:53:59;;;;;;;3.37;1.43;;;;;;;32.21;22.95;99655.22;5116493;28;20277;-72
2022/05/21 07:56:29;;;;;;;4.13;1.80;;;;;;;32.29;23.30;99673.66;5116778;28;20187;-73
2022/05/21 07:58:56;;;;;;;7.87;2.00;;;;;;;32.53;23.06;99684.78;5116621;28;20194;-73
2022/05/21 08:01:23;;;;;;;5.20;2.40;;;;;;;32.88;22.08;99663.31;5116404;28;20224;-73
2022/05/21 08:03:49;;;;;;;6.20;1.90;;;;;;;33.04;21.86;99658.78;5116188;28;20251;-72
2022/05/21 08:06:17;;;;;;;3.80;1.70;;;;;;;32.89;22.19;99659.41;5116028;28;20737;-72
2022/05/21 08:08:44;;;;;;;12.13;3.03;;;;;;;32.85;22.10;99655.72;5116168;28;20255;-72
2022/05/21 08:11:12;;;;;;;3.97;1.90;;;;;;;32.58;22.77;99651.56;5126878;27;20556;-72
2022/05/21 08:13:40;;;;;;;5.57;2.03;;;;;;;32.69;22.69;99650.03;5136203;27;20655;-72
2022/05/21 08:16:07;;;;;;;5.83;1.90;;;;;;;32.81;22.34;99647.34;5136353;27;20284;-72
2022/05/21 08:18:34;;;;;;;4.93;1.77;;;;;;;32.93;22.44;99643.81;5136466;27;20190;-73
2022/05/21 08:21:01;;;;;;;7.13;1.93;;;;;;;33.20;22.42;99638.50;5136220;27;20659;-72
2022/05/21 08:28:57;;;;;;;2.50;1.92;;;;;;;33.36;21.91;99635.13;5136034;27;20185;-72
2022/05/21 08:31:24;;;;;;;2.15;1.50;;;;;;;33.21;21.38;99637.38;5136040;27;20665;-71
2022/05/21 08:33:50;;;;;;;3.40;1.30;;;;;;;33.29;21.14;99630.16;5136102;27;20251;-72
2022/05/21 08:36:17;;;;;;;3.63;1.70;;;;;;;33.35;21.21;99633.53;5136286;27;20251;-72
2022/05/21 08:38:44;;;;;;;3.77;1.47;;;;;;;32.83;20.82;99634.03;5135799;27;20235;-72
2022/05/21 08:41:19;;;;;;;5.10;1.63;;;;;;;32.99;20.79;99632.25;5135878;27;20242;-72
2022/05/21 08:43:54;;;;;;;6.90;1.60;;;;;;;32.98;20.59;99633.41;5136892;27;20246;-72
2022/05/21 08:46:33;;;;;;;1.57;1.47;;;;;;;33.20;20.47;99621.97;5135731;27;20642;-72
2022/05/21 08:49:03;;;;;;;3.03;1.80;;;;;;;33.32;20.68;99609.41;5136153;27;20229;-72
2022/05/21 08:51:35;;;;;;;2.03;1.77;;;;;;;33.06;20.66;99613.25;5135592;27;20228;-72
2022/05/21 08:54:04;;;;;;;1.70;1.60;;;;;;;33.04;20.52;99612.75;5135515;27;20182;-72
2022/05/21 08:56:33;;;;;;;2.97;1.57;;;;;;;32.96;20.25;99605.41;5136355;27;20185;-72
2022/05/21 08:59:04;;;;;;;3.25;1.35;;;;;;;33.19;20.32;99601.09;5135924;27;20189;-73
2022/05/21 09:01:34;;;;;;;4.13;1.60;;;;;;;33.33;21.16;99604.34;5135999;27;20177;-73
2022/05/21 09:04:01;;;;;;;11.50;1.80;;;;;;;33.12;20.94;99592.59;5135478;27;20186;-72
2022/05/21 09:06:37;;;;;;;3.08;1.23;;;;;;;32.83;20.30;99584.50;5135581;27;20239;-73
2022/05/21 09:09:13;;;;;;;9.03;1.90;;;;;;;32.85;20.67;99582.22;5135050;27;20185;-73
2022/05/21 09:11:46;;;;;;;2.27;1.43;;;;;;;33.02;19.68;99582.03;5119898;27;20671;-72
2022/05/21 09:14:15;;;;;;;3.55;1.25;;;;;;;33.05;20.36;99575.03;5115441;28;20266;-73
2022/05/21 09:16:55;;;;;;;2.58;1.70;;;;;;;33.26;20.45;99565.53;5115049;28;20198;-73
2022/05/21 09:19:22;;;;;;;3.78;1.73;;;;;;;33.24;20.59;99565.06;5114914;28;20194;-72
2022/05/21 09:21:55;;;;;;;3.47;1.50;;;;;;;33.40;20.16;99556.16;5115181;28;20198;-73
2022/05/21 09:24:38;;;;;;;7.38;1.60;;;;;;;33.62;19.76;99558.44;5114524;28;20183;-73
2022/05/21 09:27:21;;;;;;;6.00;1.98;;;;;;;33.74;20.00;99563.94;5114631;28;20186;-72
2022/05/21 09:29:48;;;;;;;6.18;1.50;;;;;;;33.61;20.36;99565.09;5114902;28;20245;-73
2022/05/21 09:32:21;;;;;;;5.10;1.92;;;;;;;33.49;19.90;99554.91;5114394;27;20191;-73
2022/05/21 09:35:03;;;;;;;3.90;1.23;;;;;;;33.51;19.79;99549.03;5114117;28;20249;-73
2022/05/21 09:37:30;;;;;;;1.90;1.80;;;;;;;33.63;19.82;99540.78;5114134;28;20236;-71
2022/05/21 09:39:57;;;;;;;5.18;1.90;;;;;;;33.72;19.87;99541.44;5114150;28;20194;-71
2022/05/21 09:45:32;;;;;;;3.60;1.50;;;;;;;33.47;20.61;99535.13;5113891;28;20205;-71
2022/05/21 09:48:16;;;;;;;2.20;1.70;;;;;;;33.78;20.03;99537.28;5114966;28;20186;-71
2022/05/21 09:50:45;;;;;;;2.08;1.52;;;;;;;33.90;19.78;99531.78;5113749;28;20200;-71
2022/05/21 09:53:23;;;;;;;5.30;2.05;;;;;;;32.95;20.21;99515.72;5114837;27;20194;-71
2022/05/21 09:55:58;;;;;;;3.83;1.80;;;;;;;33.08;21.03;99522.81;5114471;28;20251;-72
2022/05/21 09:58:27;;;;;;;16.00;2.72;;;;;;;33.29;21.40;99517.22;5114091;28;20174;-71
2022/05/21 10:00:55;;;;;;;4.20;2.20;;;;;;;33.40;21.16;99523.09;5112887;28;20607;-71
2022/05/21 10:03:40;;;;;;;3.08;1.63;;;;;;;32.90;22.35;99517.88;5113901;28;20191;-71
2022/05/21 10:06:17;;;;;;;14.77;2.70;;;;;;;32.82;20.50;99510.53;5113912;28;20191;-71
2022/05/21 10:11:40;;;;;;;2.17;1.30;;;;;;;32.91;19.72;99520.28;5127788;27;20266;-71
2022/05/21 10:14:17;;;;;;;6.60;2.20;;;;;;;33.19;17.50;99518.47;5134333;27;20201;-71
2022/05/21 10:16:47;;;;;;;2.10;1.20;;;;;;;33.07;17.13;99518.47;5134237;27;20205;-71
2022/05/21 10:19:19;;;;;;;3.17;1.03;;;;;;;33.17;17.35;99511.72;5135249;27;20276;-71
2022/05/21 10:21:58;;;;;;;1.38;1.17;;;;;;;33.29;17.63;99520.78;5133788;27;20199;-71
2022/05/21 10:24:39;;;;;;;2.57;0.93;;;;;;;33.20;17.77;99517.31;5134466;27;20177;-71
2022/05/21 10:27:16;;;;;;;1.50;0.90;;;;;;;33.04;17.68;99508.13;5133846;27;20182;-71
2022/05/21 10:30:00;;;;;;;2.77;1.00;;;;;;;32.62;17.96;99512.19;5134373;27;20209;-71
2022/05/21 10:32:48;;;;;;;2.03;1.10;;;;;;;32.66;18.05;99510.34;5133739;27;20181;-71
2022/05/21 10:35:35;;;;;;;5.27;1.60;;;;;;;32.93;17.49;99507.00;5133467;27;20222;-71
2022/05/21 10:38:08;;;;;;;1.40;1.00;;;;;;;33.14;17.85;99506.88;5134793;27;20182;-71
2022/05/21 10:40:40;;;;;;;1.13;1.13;;;;;;;32.94;18.44;99497.59;5133510;27;20707;-71
2022/05/21 10:43:29;;;;;;;8.07;1.67;;;;;;;33.09;17.92;99505.19;5134144;27;20272;-71
2022/05/21 10:46:13;;;;;;;4.00;1.20;;;;;;;32.74;17.69;99492.94;5134072;27;20243;-71
2022/05/21 10:49:07;;;;;;;1.67;1.20;;;;;;;32.56;17.09;99490.72;5134518;27;20225;-71
2022/05/21 10:51:36;;;;;;;3.40;1.00;;;;;;;32.78;17.48;99477.34;5133273;27;20198;-71
2022/05/21 10:54:21;;;;;;;187.90;15.60;;;;;;;32.60;18.42;99478.72;5134217;27;20185;-71
2022/05/21 10:57:01;;;;;;;4.77;1.30;;;;;;;32.88;18.54;99474.19;5133329;27;20227;-71
2022/05/21 10:59:42;;;;;;;6.27;1.63;;;;;;;33.14;18.22;99474.66;5134019;27;20186;-71
2022/05/21 11:02:44;;;;;;;2.67;1.40;;;;;;;33.38;18.47;99475.78;5133608;27;20186;-71
2022/05/21 11:05:51;;;;;;;5.93;1.30;;;;;;;33.22;17.93;99479.25;5134052;27;20227;-71
2022/05/21 11:08:23;;;;;;;3.60;1.20;;;;;;;33.50;17.95;99484.88;5133114;27;20548;-71
2022/05/21 11:10:55;;;;;;;4.83;1.60;;;;;;;33.24;18.04;99476.94;5125061;27;20232;-71
2022/05/21 11:13:26;;;;;;;3.40;1.13;;;;;;;32.54;19.17;99471.81;5113683;28;20187;-71
2022/05/21 11:15:57;;;;;;;4.67;1.33;;;;;;;32.70;18.26;99470.00;5112408;28;20568;-71
2022/05/21 11:18:37;;;;;;;2.90;1.17;;;;;;;32.87;18.88;99467.06;5112818;28;20195;-71
2022/05/21 11:21:12;;;;;;;2.77;1.43;;;;;;;33.10;19.11;99470.97;5113299;28;20179;-71
2022/05/21 11:23:57;;;;;;;0.87;0.83;;;;;;;32.89;18.25;99467.53;5112417;28;20708;-71
2022/05/21 11:26:34;;;;;;;1.70;1.00;;;;;;;32.64;17.77;99460.38;5112345;28;20255;-71
2022/05/21 11:29:07;;;;;;;4.30;1.23;;;;;;;32.83;17.43;99454.34;5113254;28;20248;-71
2022/05/21 11:37:22;;;;;;;3.50;1.30;;;;;;;32.81;17.84;99440.13;5112348;28;20244;-71
2022/05/21 11:39:50;;;;;;;4.30;1.27;;;;;;;32.91;17.97;99431.41;5112198;28;20190;-71
2022/05/21 11:42:22;;;;;;;0.93;0.87;;;;;;;33.02;18.11;99427.03;5112420;28;20190;-71
2022/05/21 11:44:58;;;;;;;2.50;1.00;;;;;;;32.76;18.34;99427.38;5112252;28;20229;-71
2022/05/21 11:47:50;;;;;;;9.73;2.50;;;;;;;32.98;19.23;99413.16;5112716;28;20274;-71
2022/05/21 11:50:33;;;;;;;11.20;1.57;;;;;;;32.93;19.71;99396.91;5112526;28;20806;-71
2022/05/21 11:53:25;;;;;;;1.87;0.97;;;;;;;32.91;19.51;99404.69;5110438;28;20254;-71
2022/05/21 11:56:10;;;;;;;1.90;1.17;;;;;;;32.78;20.08;99389.28;5112018;28;20222;-71
2022/05/21 11:59:16;;;;;;;2.30;1.03;;;;;;;32.88;18.73;99388.06;5111857;28;20199;-71
2022/05/21 12:02:00;;;;;;;3.13;0.97;;;;;;;32.59;19.45;99386.28;5112009;28;20179;-71
2022/05/21 12:04:52;;;;;;;1.20;1.10;;;;;;;32.65;19.33;99373.94;5112053;28;20641;-71
2022/05/21 12:07:53;;;;;;;3.17;1.27;;;;;;;32.71;18.72;99386.31;5105153;28;20244;-71
2022/05/21 12:10:25;;;;;;;4.63;1.20;;;;;;;32.78;19.00;99378.28;5116115;28;20268;-71
2022/05/21 12:13:10;;;;;;;3.07;1.00;;;;;;;32.76;19.87;99364.09;5132732;27;20640;-71
2022/05/21 12:15:39;;;;;;;6.27;1.53;;;;;;;32.70;19.44;99354.44;5133040;27;20206;-71
2022/05/21 12:18:27;;;;;;;2.97;1.27;;;;;;;32.68;19.27;99350.44;5132596;27;20254;-71
2022/05/21 12:20:54;;;;;;;3.23;1.20;;;;;;;32.39;19.70;99337.72;5132366;27;20189;-71